createdAt,value
2018-07-27T00:00:06.081Z,99.90
2018-07-27T00:02:34.016Z,99.90
2018-07-27T00:05:03.307Z,99.90
2018-07-27T00:07:32.142Z,99.90
2018-07-27T00:10:01.336Z,99.90
2018-07-27T00:12:29.961Z,99.90
2018-07-27T00:14:58.520Z,99.90
2018-07-27T00:17:26.488Z,99.90
2018-07-27T00:19:54.786Z,99.90
2018-07-27T00:22:23.537Z,99.90
2018-07-27T00:24:51.598Z,99.90
2018-07-27T00:27:20.132Z,99.90
2018-07-27T00:29:48.029Z,99.90
2018-07-27T00:32:16.743Z,99.90
2018-07-27T00:34:45.773Z,99.90
2018-07-27T00:37:14.493Z,99.90
2018-07-27T00:39:43.289Z,99.90
2018-07-27T00:42:12.345Z,99.90
2018-07-27T00:44:40.566Z,99.90
2018-07-27T00:47:08.845Z,99.90
2018-07-27T00:49:37.340Z,99.90
2018-07-27T00:52:05.485Z,99.90
2018-07-27T00:57:01.565Z,99.90
2018-07-27T00:59:29.498Z,99.90
2018-07-27T01:02:09.612Z,99.90
2018-07-27T01:04:38.555Z,99.90
2018-07-27T01:07:06.988Z,99.90
2018-07-27T01:09:35.665Z,99.90
2018-07-27T01:12:05.267Z,99.90
2018-07-27T01:14:33.456Z,99.90
2018-07-27T01:17:02.389Z,99.90
2018-07-27T01:19:30.321Z,99.90
2018-07-27T01:21:58.708Z,99.90
2018-07-27T01:24:27.840Z,99.90
2018-07-27T01:26:55.803Z,99.90
2018-07-27T01:29:24.245Z,99.90
2018-07-27T01:31:52.616Z,99.90
2018-07-27T01:34:20.527Z,99.90
2018-07-27T01:36:48.972Z,99.90
2018-07-27T01:39:17.763Z,99.90
2018-07-27T01:41:45.705Z,99.90
2018-07-27T01:44:14.388Z,99.90
2018-07-27T01:46:43.209Z,99.90
2018-07-27T01:49:12.377Z,99.90
2018-07-27T01:51:40.691Z,99.90
2018-07-27T01:54:09.464Z,99.90
2018-07-27T01:56:38.217Z,99.90
2018-07-27T01:59:06.145Z,99.90
2018-07-27T02:01:35.030Z,99.90
2018-07-27T02:06:31.789Z,99.90
2018-07-27T02:09:00.624Z,99.90
2018-07-27T02:11:28.899Z,99.90
2018-07-27T02:13:58.049Z,99.90
2018-07-27T02:16:26.425Z,99.90
2018-07-27T02:18:55.710Z,99.90
2018-07-27T02:21:24.061Z,99.90
2018-07-27T02:23:52.373Z,99.90
2018-07-27T02:26:21.270Z,99.90
2018-07-27T02:28:49.633Z,99.90
2018-07-27T02:31:18.349Z,99.90
2018-07-27T02:36:16.208Z,99.90
2018-07-27T02:38:44.994Z,99.90
2018-07-27T02:41:13.368Z,99.90
2018-07-27T02:43:42.082Z,99.90
2018-07-27T02:46:11.074Z,99.90
2018-07-27T02:48:39.978Z,99.90
2018-07-27T02:51:09.068Z,99.90
2018-07-27T02:58:36.428Z,99.90
2018-07-27T03:01:05.221Z,99.90
2018-07-27T03:03:33.592Z,99.90
2018-07-27T03:06:02.294Z,99.90
2018-07-27T03:08:30.841Z,99.90
2018-07-27T03:10:59.248Z,99.90
2018-07-27T03:13:28.597Z,99.90
2018-07-27T03:15:56.980Z,99.90
2018-07-27T03:18:25.572Z,99.90
2018-07-27T03:20:54.553Z,99.90
2018-07-27T03:23:23.329Z,99.90
2018-07-27T03:25:51.657Z,99.90
2018-07-27T03:28:20.585Z,99.90
2018-07-27T03:30:50.138Z,99.90
2018-07-27T03:33:18.440Z,99.90
2018-07-27T03:35:46.717Z,99.90
2018-07-27T03:38:16.798Z,99.90
2018-07-27T03:40:45.524Z,99.90
2018-07-27T03:43:13.432Z,99.90
2018-07-27T03:45:42.073Z,99.90
2018-07-27T03:48:11.196Z,99.90
2018-07-27T03:50:41.281Z,99.90
2018-07-27T03:53:10.285Z,99.90
2018-07-27T03:55:39.096Z,99.90
2018-07-27T03:58:07.673Z,99.90
2018-07-27T04:03:04.825Z,99.90
2018-07-27T04:05:33.677Z,99.90
2018-07-27T04:08:02.361Z,99.90
2018-07-27T04:10:30.536Z,99.90
2018-07-27T04:12:59.221Z,99.90
2018-07-27T04:15:27.744Z,99.90
2018-07-27T04:18:02.321Z,99.90
2018-07-27T04:20:31.189Z,99.90
2018-07-27T04:22:59.849Z,99.90
2018-07-27T04:25:28.484Z,99.90
2018-07-27T04:27:57.017Z,99.90
2018-07-27T04:30:26.213Z,99.90
2018-07-27T04:32:54.575Z,99.90
2018-07-27T04:35:25.433Z,99.90
2018-07-27T04:37:54.392Z,99.90
2018-07-27T04:40:22.309Z,99.90
2018-07-27T04:42:50.917Z,99.90
2018-07-27T04:45:19.652Z,99.90
2018-07-27T04:47:48.430Z,99.90
2018-07-27T04:50:16.678Z,99.90
2018-07-27T04:52:44.949Z,99.90
2018-07-27T04:55:12.824Z,99.90
2018-07-27T04:57:41.705Z,99.90
2018-07-27T05:00:09.953Z,99.90
2018-07-27T05:02:39.497Z,99.90
2018-07-27T05:05:07.886Z,99.90
2018-07-27T05:07:36.353Z,99.90
2018-07-27T05:10:10.476Z,99.90
2018-07-27T05:12:38.661Z,99.90
2018-07-27T05:15:06.901Z,99.90
2018-07-27T05:17:34.834Z,99.90
2018-07-27T05:20:03.510Z,99.90
2018-07-27T05:22:31.424Z,99.90
2018-07-27T05:25:00.067Z,99.90
2018-07-27T05:27:29.953Z,99.90
2018-07-27T05:29:58.201Z,99.90
2018-07-27T05:32:26.544Z,99.90
2018-07-27T05:34:54.428Z,99.90
2018-07-27T05:37:22.596Z,99.90
2018-07-27T05:39:52.805Z,99.90
2018-07-27T05:42:21.441Z,99.90
2018-07-27T05:44:49.872Z,99.90
2018-07-27T05:47:18.149Z,99.90
2018-07-27T05:52:14.137Z,99.90
2018-07-27T05:54:43.171Z,99.90
2018-07-27T05:57:11.999Z,99.90
2018-07-27T05:59:40.205Z,99.90
2018-07-27T06:02:11.277Z,99.90
2018-07-27T06:04:39.560Z,99.90
2018-07-27T06:07:07.484Z,99.90
2018-07-27T06:09:36.242Z,99.90
2018-07-27T06:12:04.089Z,99.90
2018-07-27T06:14:32.365Z,99.90
2018-07-27T06:17:00.684Z,99.90
2018-07-27T06:19:28.569Z,99.90
2018-07-27T06:21:56.389Z,99.90
2018-07-27T06:26:53.224Z,99.90
2018-07-27T06:29:21.912Z,99.90
2018-07-27T06:31:50.704Z,99.90
2018-07-27T06:34:18.642Z,99.90
2018-07-27T06:36:47.355Z,99.90
2018-07-27T06:39:15.264Z,99.90
2018-07-27T06:41:44.737Z,99.90
2018-07-27T06:44:13.407Z,99.90
2018-07-27T06:46:41.327Z,99.90
2018-07-27T06:49:09.216Z,99.90
2018-07-27T06:51:38.445Z,99.90
2018-07-27T06:54:06.421Z,99.90
2018-07-27T06:56:34.833Z,99.90
2018-07-27T06:59:02.757Z,99.90
2018-07-27T07:01:31.449Z,99.90
2018-07-27T07:06:27.456Z,99.90
2018-07-27T07:08:56.238Z,99.90
2018-07-27T07:11:24.161Z,99.90
2018-07-27T07:13:52.417Z,99.90
2018-07-27T07:16:20.329Z,99.90
2018-07-27T07:21:16.809Z,99.90
2018-07-27T07:23:44.700Z,99.90
2018-07-27T07:26:12.831Z,99.90
2018-07-27T07:28:40.954Z,99.90
2018-07-27T07:31:08.856Z,99.90
2018-07-27T07:33:37.164Z,99.90
2018-07-27T07:36:05.465Z,99.90
2018-07-27T07:38:33.757Z,99.90
2018-07-27T07:41:01.617Z,99.90
2018-07-27T07:43:29.894Z,99.90
2018-07-27T07:45:58.168Z,99.90
2018-07-27T07:48:26.555Z,99.90
2018-07-27T07:50:54.981Z,99.90
2018-07-27T07:53:23.720Z,99.90
2018-07-27T07:55:51.613Z,99.90
2018-07-27T07:58:20.450Z,99.90
2018-07-27T08:00:49.067Z,99.90
2018-07-27T08:03:18.173Z,99.90
2018-07-27T08:05:45.990Z,99.90
2018-07-27T08:08:13.900Z,99.90
2018-07-27T08:10:42.150Z,99.90
2018-07-27T08:13:10.448Z,99.90
2018-07-27T08:18:06.752Z,99.90
2018-07-27T08:20:35.001Z,99.90
2018-07-27T08:23:03.646Z,99.90
2018-07-27T08:25:41.365Z,99.90
2018-07-27T08:28:20.609Z,99.90
2018-07-27T08:30:49.005Z,99.90
2018-07-27T08:33:16.918Z,99.90
2018-07-27T08:35:45.190Z,99.90
2018-07-27T08:38:14.504Z,99.90
2018-07-27T08:40:42.400Z,99.90
2018-07-27T08:43:10.326Z,99.90
2018-07-27T08:45:38.514Z,99.90
2018-07-27T08:48:07.265Z,99.90
2018-07-27T08:50:35.629Z,99.90
2018-07-27T08:53:03.543Z,99.90
2018-07-27T08:55:32.134Z,99.90
2018-07-27T08:58:00.717Z,99.90
2018-07-27T09:00:39.884Z,99.90
2018-07-27T09:03:07.773Z,99.90
2018-07-27T09:05:36.053Z,99.90
2018-07-27T09:08:04.177Z,99.90
2018-07-27T09:10:33.265Z,99.90
2018-07-27T09:13:01.221Z,99.90
2018-07-27T09:15:29.461Z,99.90
2018-07-27T09:17:57.753Z,99.90
2018-07-27T09:20:26.129Z,99.90
2018-07-27T09:22:54.708Z,99.90
2018-07-27T09:25:23.131Z,99.90
2018-07-27T09:27:52.041Z,99.90
2018-07-27T09:30:20.706Z,99.90
2018-07-27T09:32:49.032Z,99.90
2018-07-27T09:35:17.374Z,99.90
2018-07-27T09:37:46.093Z,99.90
2018-07-27T09:40:15.328Z,99.90
2018-07-27T09:42:44.078Z,99.90
2018-07-27T09:45:12.427Z,99.80
2018-07-27T09:47:40.889Z,99.90
2018-07-27T09:50:08.805Z,99.90
2018-07-27T09:52:37.041Z,99.90
2018-07-27T09:55:05.412Z,99.90
2018-07-27T09:57:34.006Z,98.80
2018-07-27T10:00:01.921Z,98.50
2018-07-27T10:04:57.909Z,99.90
2018-07-27T10:07:26.593Z,99.50
2018-07-27T10:09:55.492Z,98.70
2018-07-27T10:12:25.302Z,97.00
2018-07-27T10:14:53.553Z,97.50
2018-07-27T10:17:21.961Z,94.00
2018-07-27T10:22:18.262Z,94.90
2018-07-27T10:24:46.501Z,97.00
2018-07-27T10:27:14.788Z,94.50
2018-07-27T10:29:43.049Z,94.60
2018-07-27T10:32:11.929Z,92.70
2018-07-27T10:34:39.836Z,92.00
2018-07-27T10:37:08.985Z,94.70
2018-07-27T10:39:37.264Z,91.30
2018-07-27T10:42:05.365Z,93.90
2018-07-27T10:44:33.277Z,91.80
2018-07-27T10:47:01.485Z,92.90
2018-07-27T10:49:29.296Z,91.90
2018-07-27T10:51:57.202Z,91.60
2018-07-27T10:54:25.589Z,92.70
2018-07-27T10:56:53.908Z,92.00
2018-07-27T10:59:22.550Z,90.80
2018-07-27T11:01:50.665Z,91.30
2018-07-27T11:04:18.983Z,89.00
2018-07-27T11:06:47.585Z,92.40
2018-07-27T11:09:15.420Z,91.80
2018-07-27T11:11:43.297Z,91.30
2018-07-27T11:14:11.632Z,90.00
2018-07-27T11:16:39.540Z,91.10
2018-07-27T11:19:07.905Z,86.10
2018-07-27T11:21:38.063Z,88.90
2018-07-27T11:24:07.936Z,89.20
2018-07-27T11:26:38.303Z,91.20
2018-07-27T11:29:06.372Z,85.20
2018-07-27T11:31:34.625Z,86.60
2018-07-27T11:34:03.391Z,90.30
2018-07-27T11:36:32.545Z,85.30
2018-07-27T11:39:02.350Z,81.70
2018-07-27T11:41:30.581Z,80.60
2018-07-27T11:43:58.796Z,81.90
2018-07-27T11:46:27.476Z,81.00
2018-07-27T11:48:55.338Z,82.30
2018-07-27T11:51:24.304Z,80.10
2018-07-27T11:53:52.213Z,79.70
2018-07-27T11:56:22.381Z,80.20
2018-07-27T11:58:51.504Z,80.20
2018-07-27T12:01:20.521Z,79.50
2018-07-27T12:06:17.885Z,81.60
2018-07-27T12:08:47.585Z,80.50
2018-07-27T12:11:15.472Z,80.70
2018-07-27T12:13:44.519Z,75.90
2018-07-27T12:16:12.657Z,76.80
2018-07-27T12:18:41.908Z,81.80
2018-07-27T12:21:10.516Z,77.60
2018-07-27T12:23:46.931Z,77.50
2018-07-27T12:26:16.677Z,81.80
2018-07-27T12:28:45.769Z,80.00
2018-07-27T12:31:13.993Z,83.80
2018-07-27T12:33:43.222Z,80.90
2018-07-27T12:36:12.025Z,80.80
2018-07-27T12:38:45.381Z,74.70
2018-07-27T12:41:14.332Z,80.00
2018-07-27T12:43:43.221Z,77.00
2018-07-27T12:46:11.897Z,71.70
2018-07-27T12:48:42.029Z,73.70
2018-07-27T12:53:45.650Z,76.20
2018-07-27T12:56:13.969Z,66.80
2018-07-27T12:58:41.886Z,66.40
2018-07-27T13:01:09.692Z,65.00
2018-07-27T13:03:38.792Z,64.60
2018-07-27T13:06:07.225Z,61.40
2018-07-27T13:11:20.200Z,56.00
2018-07-27T13:13:49.873Z,56.20
2018-07-27T13:16:18.760Z,56.50
2018-07-27T13:18:48.472Z,57.30
2018-07-27T13:21:17.793Z,57.10
2018-07-27T13:23:55.881Z,56.20
2018-07-27T13:26:24.681Z,54.40
2018-07-27T13:31:33.241Z,56.50
2018-07-27T13:34:13.093Z,51.70
2018-07-27T13:36:43.198Z,51.90
2018-07-27T13:39:12.305Z,51.80
2018-07-27T13:41:41.396Z,53.10
2018-07-27T13:46:39.967Z,54.50
2018-07-27T13:49:08.900Z,51.40
2018-07-27T13:51:36.865Z,51.90
2018-07-27T13:54:05.498Z,50.80
2018-07-27T13:56:34.454Z,50.10
2018-07-27T13:59:03.124Z,46.50
2018-07-27T14:01:31.789Z,47.20
2018-07-27T14:06:29.334Z,44.90
2018-07-27T14:08:58.894Z,48.00
2018-07-27T14:11:27.356Z,47.70
2018-07-27T14:16:23.853Z,44.80
2018-07-27T14:18:52.880Z,49.10
2018-07-27T14:21:22.597Z,48.70
2018-07-27T14:23:51.145Z,48.20
2018-07-27T14:26:19.556Z,46.50
2018-07-27T14:28:49.254Z,46.50
2018-07-27T14:31:19.318Z,45.40
2018-07-27T14:33:48.589Z,45.60
2018-07-27T14:36:17.237Z,47.30
2018-07-27T14:38:47.910Z,47.50
2018-07-27T14:41:15.853Z,45.40
2018-07-27T14:43:45.766Z,44.40
2018-07-27T14:46:13.746Z,46.80
2018-07-27T14:48:42.301Z,45.00
2018-07-27T14:51:10.485Z,47.70
2018-07-27T14:53:45.281Z,47.40
2018-07-27T14:56:14.344Z,44.60
2018-07-27T14:58:43.495Z,43.90
2018-07-27T15:03:40.860Z,44.50
2018-07-27T15:06:09.916Z,43.10
2018-07-27T15:08:40.896Z,42.50
2018-07-27T15:11:09.572Z,45.20
2018-07-27T15:13:38.269Z,42.80
2018-07-27T15:16:06.541Z,42.00
2018-07-27T15:18:35.230Z,42.90
2018-07-27T15:21:04.692Z,42.80
2018-07-27T15:23:33.885Z,42.80
2018-07-27T15:26:03.396Z,41.60
2018-07-27T15:28:31.760Z,45.50
2018-07-27T15:31:00.754Z,43.90
2018-07-27T15:33:29.549Z,45.00
2018-07-27T15:35:58.592Z,45.30
2018-07-27T15:38:26.914Z,44.10
2018-07-27T15:40:55.252Z,42.90
2018-07-27T15:43:23.898Z,43.40
2018-07-27T15:45:51.884Z,42.60
2018-07-27T15:48:20.566Z,43.30
2018-07-27T15:50:50.305Z,42.90
2018-07-27T15:53:18.445Z,42.60
2018-07-27T15:55:48.202Z,41.00
2018-07-27T15:58:16.877Z,40.20
2018-07-27T16:00:44.829Z,41.00
2018-07-27T16:03:13.180Z,42.10
2018-07-27T16:05:41.561Z,42.40
2018-07-27T16:08:28.624Z,45.80
2018-07-27T16:10:57.112Z,46.40
2018-07-27T16:13:25.513Z,47.70
2018-07-27T16:15:54.957Z,47.60
2018-07-27T16:18:23.696Z,47.30
2018-07-27T16:20:52.080Z,44.90
2018-07-27T16:23:23.865Z,46.30
2018-07-27T16:25:52.909Z,45.10
2018-07-27T16:28:22.384Z,48.30
2018-07-27T16:30:51.330Z,47.20
2018-07-27T16:33:19.256Z,47.60
2018-07-27T16:35:49.202Z,45.70
2018-07-27T16:38:19.414Z,47.00
2018-07-27T16:40:47.761Z,48.10
2018-07-27T16:43:15.705Z,44.40
2018-07-27T16:45:44.171Z,45.00
2018-07-27T16:48:12.540Z,45.50
2018-07-27T16:50:41.284Z,46.90
2018-07-27T16:53:09.846Z,47.80
2018-07-27T16:55:38.872Z,47.00
2018-07-27T16:58:07.538Z,47.10
2018-07-27T17:00:36.702Z,45.90
2018-07-27T17:03:05.369Z,46.90
2018-07-27T17:05:33.298Z,46.80
2018-07-27T17:08:02.935Z,46.10
2018-07-27T17:10:31.494Z,46.30
2018-07-27T17:12:59.768Z,46.00
2018-07-27T17:15:28.913Z,48.70
2018-07-27T17:17:58.064Z,48.40
2018-07-27T17:20:26.413Z,47.40
2018-07-27T17:22:56.682Z,49.10
2018-07-27T17:25:25.867Z,48.30
2018-07-27T17:27:54.247Z,49.60
2018-07-27T17:30:23.437Z,51.20
2018-07-27T17:32:51.917Z,53.10
2018-07-27T17:35:19.849Z,53.60
2018-07-27T17:40:17.965Z,54.00
2018-07-27T17:42:46.777Z,54.80
2018-07-27T17:45:16.612Z,55.90
2018-07-27T17:47:50.441Z,56.90
2018-07-27T17:50:19.027Z,56.90
2018-07-27T17:52:47.019Z,56.70
2018-07-27T17:55:15.621Z,56.80
2018-07-27T17:57:44.453Z,58.00
2018-07-27T18:00:14.269Z,57.00
2018-07-27T18:02:43.139Z,57.80
2018-07-27T18:05:11.844Z,58.60
2018-07-27T18:07:41.562Z,60.40
2018-07-27T18:12:47.097Z,60.80
2018-07-27T18:15:18.286Z,61.60
2018-07-27T18:20:15.637Z,63.80
2018-07-27T18:22:45.545Z,63.30
2018-07-27T18:25:15.438Z,64.80
2018-07-27T18:27:44.029Z,65.10
2018-07-27T18:30:23.171Z,66.00
2018-07-27T18:32:51.763Z,66.40
2018-07-27T18:35:20.586Z,66.90
2018-07-27T18:37:49.553Z,67.40
2018-07-27T18:40:19.045Z,69.90
2018-07-27T18:42:48.312Z,75.90
2018-07-27T18:45:19.725Z,78.40
2018-07-27T18:47:49.633Z,80.50
2018-07-27T18:50:18.513Z,82.40
2018-07-27T18:52:46.869Z,84.00
2018-07-27T18:55:16.077Z,86.40
2018-07-27T18:57:44.913Z,88.90
2018-07-27T19:00:14.757Z,90.00
2018-07-27T19:02:43.873Z,90.90
2018-07-27T19:05:12.873Z,92.90
2018-07-27T19:07:40.820Z,93.40
2018-07-27T19:10:09.461Z,94.40
2018-07-27T19:12:38.140Z,95.60
2018-07-27T19:15:07.517Z,96.80
2018-07-27T19:17:36.206Z,98.10
2018-07-27T19:20:05.023Z,99.60
2018-07-27T19:22:33.886Z,99.90
2018-07-27T19:27:30.948Z,99.90
2018-07-27T19:29:59.217Z,99.90
2018-07-27T19:32:27.600Z,99.90
2018-07-27T19:34:57.211Z,99.90
2018-07-27T19:39:55.179Z,99.90
2018-07-27T19:42:23.837Z,99.90
2018-07-27T19:44:52.261Z,99.90
2018-07-27T19:47:21.925Z,99.90
2018-07-27T19:49:50.990Z,99.90
2018-07-27T19:52:19.317Z,99.90
2018-07-27T19:54:48.982Z,99.90
2018-07-27T19:57:22.033Z,99.90
2018-07-27T19:59:50.709Z,99.90
2018-07-27T20:02:20.681Z,99.90
2018-07-27T20:04:50.285Z,99.90
2018-07-27T20:07:18.852Z,99.90
2018-07-27T20:09:48.153Z,99.90
2018-07-27T20:12:16.084Z,99.90
2018-07-27T20:14:43.953Z,99.90
2018-07-27T20:17:12.636Z,99.90
2018-07-27T20:19:41.193Z,99.90
2018-07-27T20:22:09.721Z,99.90
2018-07-27T20:24:37.856Z,99.90
2018-07-27T20:27:06.065Z,99.90
2018-07-27T20:29:35.285Z,99.90
2018-07-27T20:32:05.069Z,99.90
2018-07-27T20:34:34.053Z,99.90
2018-07-27T20:37:02.948Z,99.90
2018-07-27T20:39:31.041Z,99.90
2018-07-27T20:41:59.293Z,99.90
2018-07-27T20:44:28.579Z,99.90
2018-07-27T20:47:02.364Z,99.90
2018-07-27T20:52:00.645Z,99.90
2018-07-27T20:54:31.537Z,99.90
2018-07-27T20:57:00.481Z,99.90
2018-07-27T20:59:29.040Z,99.90
2018-07-27T21:01:57.708Z,99.90
2018-07-27T21:04:26.265Z,99.90
2018-07-27T21:06:54.894Z,99.90
2018-07-27T21:09:22.773Z,99.90
2018-07-27T21:11:52.804Z,99.90
2018-07-27T21:14:21.513Z,99.90
2018-07-27T21:19:20.445Z,99.90
2018-07-27T21:21:48.406Z,99.90
2018-07-27T21:24:17.101Z,99.90
2018-07-27T21:26:46.582Z,99.90
2018-07-27T21:29:14.930Z,99.90
2018-07-27T21:31:43.057Z,99.90
2018-07-27T21:34:11.993Z,99.90
2018-07-27T21:36:40.313Z,99.90
2018-07-27T21:39:10.636Z,99.90
2018-07-27T21:41:38.945Z,99.90
2018-07-27T21:44:07.300Z,99.90
2018-07-27T21:46:36.233Z,99.90
2018-07-27T21:49:05.277Z,99.90
2018-07-27T21:51:34.968Z,99.90
2018-07-27T21:54:02.802Z,99.90
2018-07-27T21:56:31.184Z,99.90
2018-07-27T21:58:59.977Z,99.90
2018-07-27T22:01:28.457Z,99.90
2018-07-27T22:03:57.285Z,99.90
2018-07-27T22:06:25.932Z,99.90
2018-07-27T22:08:54.574Z,99.90
2018-07-27T22:11:23.157Z,99.90
2018-07-27T22:13:51.993Z,99.90
2018-07-27T22:16:21.233Z,99.90
2018-07-27T22:18:49.533Z,99.90
2018-07-27T22:21:18.342Z,99.90
2018-07-27T22:23:50.800Z,99.90
2018-07-27T22:26:19.137Z,99.90
2018-07-27T22:28:47.893Z,99.90
2018-07-27T22:31:16.071Z,99.90
2018-07-27T22:33:43.997Z,99.90
2018-07-27T22:36:13.012Z,99.90
2018-07-27T22:38:47.348Z,99.90
2018-07-27T22:41:16.482Z,99.90
2018-07-27T22:43:45.134Z,99.90
2018-07-27T22:46:13.996Z,99.90
2018-07-27T22:48:42.401Z,99.90
2018-07-27T22:51:10.917Z,99.90
2018-07-27T22:53:39.670Z,99.90
2018-07-27T22:56:08.303Z,99.90
2018-07-27T22:58:37.549Z,99.90
2018-07-27T23:01:11.320Z,99.90
2018-07-27T23:03:40.027Z,99.90
2018-07-27T23:06:08.622Z,99.90
2018-07-27T23:08:36.528Z,99.90
2018-07-27T23:11:04.657Z,99.90
2018-07-27T23:13:32.626Z,99.90
2018-07-27T23:16:00.811Z,99.90
2018-07-27T23:18:30.109Z,99.90
2018-07-27T23:20:58.010Z,99.90
2018-07-27T23:25:53.949Z,99.90
2018-07-27T23:28:21.909Z,99.90
2018-07-27T23:30:50.326Z,99.90
2018-07-27T23:33:18.277Z,99.90
2018-07-27T23:35:46.920Z,99.90
2018-07-27T23:38:15.517Z,99.90
2018-07-27T23:40:43.701Z,99.90
2018-07-27T23:43:12.004Z,99.90
2018-07-27T23:45:40.379Z,99.90
2018-07-27T23:48:08.616Z,99.90
2018-07-27T23:50:37.293Z,99.90
2018-07-27T23:53:06.143Z,99.90
2018-07-27T23:55:34.080Z,99.90
2018-07-27T23:58:03.089Z,99.90
